Time;durP1;ratioP1;P1;durP2;ratioP2;P2;SDS_P1;SDS_P2;PMS_P1;PMS_P2;Temp;Humidity;BMP_temperature;BMP_pressure;BME280_temperature;BME280_humidity;BME280_pressure;Samples;Min_cycle;Max_cycle;Signal;HPM_P1;HPM_P2
2021/10/27 00:00:28;;;;;;;4.67;2.70;;;10.50;99.90;;;;;;5049997;28;20294;-69
2021/10/27 00:02:54;;;;;;;5.10;2.77;;;10.50;99.90;;;;;;5065106;28;20293;-69
2021/10/27 00:05:20;;;;;;;2.13;1.93;;;10.50;99.90;;;;;;5066512;28;20219;-70
2021/10/27 00:07:46;;;;;;;2.40;2.20;;;10.50;99.90;;;;;;5066368;28;20726;-69
2021/10/27 00:10:12;;;;;;;2.23;2.03;;;10.40;99.90;;;;;;5064273;28;20269;-70
2021/10/27 00:12:38;;;;;;;2.70;2.50;;;10.40;99.90;;;;;;5065912;28;20273;-69
2021/10/27 00:15:10;;;;;;;4.47;2.80;;;10.40;99.90;;;;;;5065107;28;20469;-69
2021/10/27 00:17:36;;;;;;;3.87;2.87;;;10.40;99.90;;;;;;5073502;28;20462;-70
2021/10/27 00:20:05;;;;;;;2.50;1.83;;;10.40;99.90;;;;;;5066244;28;20465;-69
2021/10/27 00:22:32;;;;;;;3.27;2.70;;;10.40;99.90;;;;;;5066198;28;20506;-71
2021/10/27 00:24:57;;;;;;;6.33;2.50;;;10.40;99.90;;;;;;5065389;28;21025;-69
2021/10/27 00:27:23;;;;;;;2.50;2.30;;;10.30;99.90;;;;;;5048789;28;20461;-70
2021/10/27 00:29:49;;;;;;;3.60;2.83;;;10.30;99.90;;;;;;5066713;28;20298;-70
2021/10/27 00:32:15;;;;;;;2.73;2.50;;;10.30;99.90;;;;;;5063357;28;20566;-70
2021/10/27 00:34:41;;;;;;;4.50;2.23;;;10.30;99.90;;;;;;5065267;28;20297;-69
2021/10/27 00:37:06;;;;;;;3.37;2.90;;;10.30;99.90;;;;;;5065821;28;20223;-69
2021/10/27 00:39:34;;;;;;;2.50;2.30;;;10.20;99.90;;;;;;5051276;28;20457;-70
2021/10/27 00:42:00;;;;;;;2.70;2.47;;;10.20;99.90;;;;;;5066057;28;20227;-70
2021/10/27 00:44:26;;;;;;;3.60;3.00;;;10.10;99.90;;;;;;5049449;28;20469;-71
2021/10/27 00:47:04;;;;;;;3.50;2.83;;;10.10;99.90;;;;;;5067997;28;20456;-70
2021/10/27 00:49:31;;;;;;;2.63;2.40;;;10.10;99.90;;;;;;5067051;28;20459;-70
2021/10/27 00:52:02;;;;;;;2.80;2.23;;;10.10;99.90;;;;;;5050704;28;20477;-68
2021/10/27 00:54:28;;;;;;;4.03;2.80;;;10.10;99.90;;;;;;5084126;28;20457;-70
2021/10/27 00:56:56;;;;;;;2.83;2.30;;;10.00;99.90;;;;;;5050065;28;20516;-70
2021/10/27 00:59:25;;;;;;;4.13;2.63;;;9.90;99.90;;;;;;5067129;28;20498;-69
2021/10/27 01:01:56;;;;;;;2.13;1.93;;;9.70;99.90;;;;;;5066704;28;20464;-70
2021/10/27 01:04:22;;;;;;;2.70;2.20;;;9.60;99.90;;;;;;5065762;28;20458;-70
2021/10/27 01:06:49;;;;;;;2.87;2.57;;;9.70;99.90;;;;;;5068285;28;20982;-70
2021/10/27 01:09:15;;;;;;;2.00;1.90;;;9.70;99.90;;;;;;5066866;28;20473;-70
2021/10/27 01:11:42;;;;;;;3.30;2.63;;;9.80;99.90;;;;;;5066208;28;20499;-69
2021/10/27 01:14:09;;;;;;;8.03;2.30;;;9.80;99.90;;;;;;5066139;28;20449;-69
2021/10/27 01:16:35;;;;;;;2.27;1.93;;;9.80;99.90;;;;;;5065728;28;20511;-70
2021/10/27 01:19:02;;;;;;;2.20;2.03;;;9.80;99.90;;;;;;5067001;28;20496;-70
2021/10/27 01:21:31;;;;;;;2.30;1.87;;;9.80;99.90;;;;;;5067742;28;20954;-70
2021/10/27 01:24:01;;;;;;;3.37;2.70;;;9.90;99.90;;;;;;5067403;28;20471;-71
2021/10/27 01:26:27;;;;;;;2.20;2.00;;;9.90;99.90;;;;;;5066371;28;20449;-70
2021/10/27 01:28:53;;;;;;;2.20;2.00;;;9.90;99.90;;;;;;5067507;28;20468;-71
2021/10/27 01:31:21;;;;;;;3.90;3.00;;;9.90;99.90;;;;;;5065391;28;20466;-72
2021/10/27 01:33:47;;;;;;;9.13;5.00;;;9.90;99.90;;;;;;5066430;28;20462;-71
2021/10/27 01:36:17;;;;;;;7.07;4.67;;;9.90;99.90;;;;;;5067198;28;20457;-70
2021/10/27 01:38:44;;;;;;;4.73;2.80;;;9.90;99.90;;;;;;5067734;28;20974;-71
2021/10/27 01:41:10;;;;;;;3.90;2.77;;;9.90;99.90;;;;;;5067074;28;20484;-70
2021/10/27 01:43:51;;;;;;;6.50;3.17;;;9.90;99.90;;;;;;5067549;28;20481;-70
2021/10/27 01:46:25;;;;;;;3.47;2.40;;;9.90;99.90;;;;;;5070996;28;20227;-71
2021/10/27 01:48:50;;;;;;;3.53;2.73;;;10.00;99.90;;;;;;5070343;28;20480;-72
2021/10/27 01:51:16;;;;;;;3.03;2.53;;;9.90;99.90;;;;;;5070579;28;20473;-71
2021/10/27 01:53:42;;;;;;;2.90;2.33;;;9.90;99.90;;;;;;5070858;28;20223;-69
2021/10/27 01:56:07;;;;;;;7.33;2.70;;;9.90;99.90;;;;;;5069360;28;20223;-70
2021/10/27 01:58:34;;;;;;;2.90;2.50;;;10.00;99.90;;;;;;5070273;28;20706;-71
2021/10/27 02:01:00;;;;;;;2.50;2.30;;;9.90;99.90;;;;;;5070451;28;20516;-71
2021/10/27 02:03:26;;;;;;;4.67;2.73;;;10.00;99.90;;;;;;5069741;28;20841;-70
2021/10/27 02:05:52;;;;;;;2.40;2.30;;;10.00;99.90;;;;;;5071382;28;20249;-71
2021/10/27 02:08:17;;;;;;;2.70;2.50;;;10.00;99.90;;;;;;5054975;28;20453;-72
2021/10/27 02:10:43;;;;;;;3.20;2.50;;;10.00;99.90;;;;;;5071379;28;20223;-70
2021/10/27 02:13:09;;;;;;;2.77;2.13;;;10.00;99.90;;;;;;5054144;28;20273;-70
2021/10/27 02:15:35;;;;;;;2.90;2.50;;;10.00;99.90;;;;;;5055433;28;20465;-70
2021/10/27 02:18:00;;;;;;;3.80;2.50;;;10.00;99.90;;;;;;5072113;28;20230;-69
2021/10/27 02:20:26;;;;;;;3.20;2.90;;;10.00;99.90;;;;;;5055178;28;20219;-73
2021/10/27 02:22:52;;;;;;;3.23;2.17;;;10.10;99.90;;;;;;5054988;28;20253;-72
2021/10/27 02:25:18;;;;;;;4.70;2.00;;;10.10;99.90;;;;;;5070819;28;20461;-71
2021/10/27 02:27:45;;;;;;;2.27;2.00;;;10.10;99.90;;;;;;5071627;28;20222;-71
2021/10/27 02:30:11;;;;;;;3.10;2.57;;;10.10;99.90;;;;;;5071521;28;20485;-71
2021/10/27 02:32:37;;;;;;;2.37;2.17;;;10.10;99.90;;;;;;5072132;28;20231;-71
2021/10/27 02:35:04;;;;;;;2.83;2.10;;;10.10;99.90;;;;;;5054247;28;20464;-71
2021/10/27 02:37:30;;;;;;;6.10;2.43;;;10.10;99.90;;;;;;5071913;28;20457;-71
2021/10/27 02:39:56;;;;;;;3.97;2.27;;;10.20;99.90;;;;;;5071165;28;20462;-70
2021/10/27 02:42:21;;;;;;;3.20;2.30;;;10.20;99.90;;;;;;5070922;28;20220;-71
2021/10/27 02:44:48;;;;;;;1.97;1.80;;;10.20;99.90;;;;;;5054751;28;20306;-71
2021/10/27 02:47:14;;;;;;;3.27;2.20;;;10.20;99.90;;;;;;5070965;28;20997;-71
2021/10/27 02:49:39;;;;;;;2.20;2.00;;;10.20;99.90;;;;;;5070682;28;20223;-71
2021/10/27 02:52:05;;;;;;;2.63;2.20;;;10.20;99.90;;;;;;5070560;28;20247;-73
2021/10/27 02:54:31;;;;;;;2.30;2.10;;;10.20;99.90;;;;;;5070519;28;20227;-71
2021/10/27 02:56:57;;;;;;;2.47;2.13;;;10.20;99.90;;;;;;5053882;28;20474;-70
2021/10/27 02:59:22;;;;;;;1.97;1.80;;;10.20;99.90;;;;;;5070661;28;20230;-71
2021/10/27 03:01:48;;;;;;;2.83;2.57;;;10.20;99.90;;;;;;5054053;28;20223;-71
2021/10/27 03:04:14;;;;;;;3.60;2.10;;;10.20;99.90;;;;;;5052909;28;20716;-70
2021/10/27 03:06:40;;;;;;;4.40;2.17;;;10.30;99.90;;;;;;5070745;28;20288;-72
2021/10/27 03:09:07;;;;;;;2.20;1.90;;;10.30;99.90;;;;;;5070216;28;20777;-70
2021/10/27 03:11:32;;;;;;;2.23;2.03;;;10.30;99.90;;;;;;5070086;28;20473;-71
2021/10/27 03:13:58;;;;;;;4.00;2.70;;;10.30;99.90;;;;;;5070411;28;20457;-71
2021/10/27 03:16:24;;;;;;;2.53;2.30;;;10.30;99.90;;;;;;5070250;28;20223;-71
2021/10/27 03:18:50;;;;;;;3.73;2.13;;;10.30;99.90;;;;;;5070659;28;20234;-70
2021/10/27 03:21:15;;;;;;;2.93;2.57;;;10.30;99.90;;;;;;5070395;28;20233;-70
2021/10/27 03:23:41;;;;;;;2.90;2.43;;;10.30;99.90;;;;;;5070266;28;20612;-70
2021/10/27 03:26:07;;;;;;;4.80;2.50;;;10.30;99.90;;;;;;5052286;28;20224;-71
2021/10/27 03:28:32;;;;;;;2.90;2.40;;;10.30;99.90;;;;;;5072029;28;20215;-71
2021/10/27 03:30:58;;;;;;;3.90;2.23;;;10.40;99.90;;;;;;5063325;28;20212;-70
2021/10/27 03:33:24;;;;;;;5.13;3.00;;;10.40;99.90;;;;;;5065187;28;20220;-71
2021/10/27 03:35:50;;;;;;;3.13;2.60;;;10.40;99.90;;;;;;5070428;28;20289;-72
2021/10/27 03:38:17;;;;;;;3.40;2.40;;;10.40;99.90;;;;;;5049912;28;20453;-69
2021/10/27 03:40:44;;;;;;;4.10;2.97;;;10.40;99.90;;;;;;5080183;28;20454;-71
2021/10/27 03:43:10;;;;;;;4.13;2.67;;;10.40;99.90;;;;;;5069379;28;20446;-70
2021/10/27 03:45:36;;;;;;;3.80;2.87;;;10.40;99.90;;;;;;5070423;28;20469;-71
2021/10/27 03:48:02;;;;;;;2.83;2.53;;;10.40;99.90;;;;;;5069837;28;20235;-71
2021/10/27 03:50:27;;;;;;;4.77;2.90;;;10.40;99.90;;;;;;5069548;28;20891;-71
2021/10/27 03:52:53;;;;;;;4.23;3.13;;;10.40;99.90;;;;;;5070863;28;20233;-72
2021/10/27 03:55:19;;;;;;;3.77;2.67;;;10.40;99.90;;;;;;5052669;28;20636;-70
2021/10/27 03:57:44;;;;;;;3.00;2.73;;;10.40;99.90;;;;;;5069710;28;20223;-71
2021/10/27 04:00:11;;;;;;;3.40;2.97;;;10.40;99.90;;;;;;5070355;28;20220;-70
2021/10/27 04:02:41;;;;;;;4.73;3.17;;;10.40;99.90;;;;;;5069566;28;20219;-72
2021/10/27 04:05:08;;;;;;;4.87;3.67;;;10.40;99.90;;;;;;5085038;28;20465;-70
2021/10/27 04:07:36;;;;;;;3.60;3.20;;;10.50;99.90;;;;;;5069213;28;20970;-72
2021/10/27 04:10:04;;;;;;;4.87;3.40;;;10.40;99.90;;;;;;5068015;28;20446;-72
2021/10/27 04:12:31;;;;;;;5.20;3.07;;;10.50;99.90;;;;;;5069558;28;20469;-71
2021/10/27 04:14:57;;;;;;;3.53;2.90;;;10.50;99.90;;;;;;5053011;28;20464;-72
2021/10/27 04:17:24;;;;;;;3.50;3.07;;;10.50;99.90;;;;;;5068744;28;20442;-69
2021/10/27 04:19:49;;;;;;;5.63;3.10;;;10.50;99.90;;;;;;5060843;28;20463;-69
2021/10/27 04:22:15;;;;;;;3.67;3.17;;;10.50;99.90;;;;;;5048482;28;20461;-71
2021/10/27 04:24:41;;;;;;;4.00;3.13;;;10.50;99.90;;;;;;5054886;28;20234;-71
2021/10/27 04:27:07;;;;;;;7.67;3.13;;;10.50;99.90;;;;;;5052173;28;20231;-71
2021/10/27 04:29:33;;;;;;;5.67;3.47;;;10.50;99.90;;;;;;5069499;28;20233;-71
2021/10/27 04:31:58;;;;;;;6.90;3.43;;;10.50;99.90;;;;;;5068645;28;20474;-71
2021/10/27 04:34:25;;;;;;;4.37;2.90;;;10.50;99.90;;;;;;5051791;28;20310;-71
2021/10/27 04:36:51;;;;;;;10.53;3.97;;;10.50;99.90;;;;;;5052190;28;20254;-71
2021/10/27 04:39:17;;;;;;;5.50;3.97;;;10.50;99.90;;;;;;5067736;28;21006;-71
2021/10/27 04:41:43;;;;;;;4.83;3.73;;;10.50;99.90;;;;;;5068593;28;20215;-71
2021/10/27 04:44:09;;;;;;;6.10;3.43;;;10.50;99.90;;;;;;5082642;28;20249;-71
2021/10/27 04:46:35;;;;;;;5.70;4.40;;;10.50;99.90;;;;;;5067722;28;20483;-74
2021/10/27 04:49:01;;;;;;;6.10;4.10;;;10.50;99.90;;;;;;5067732;28;20464;-73
2021/10/27 04:51:26;;;;;;;8.30;4.83;;;10.40;99.90;;;;;;5067972;28;20473;-70
2021/10/27 04:53:52;;;;;;;6.13;4.43;;;10.40;99.90;;;;;;5067852;28;20233;-71
2021/10/27 04:56:18;;;;;;;5.63;3.97;;;10.40;99.90;;;;;;5067087;28;20250;-72
2021/10/27 04:58:43;;;;;;;5.67;3.60;;;10.40;99.90;;;;;;5070370;28;20225;-71
2021/10/27 05:01:09;;;;;;;5.70;4.07;;;10.40;99.90;;;;;;5046627;28;20298;-73
2021/10/27 05:03:35;;;;;;;7.27;5.37;;;10.40;99.90;;;;;;5048223;28;20593;-74
2021/10/27 05:06:02;;;;;;;9.17;5.77;;;10.40;99.90;;;;;;5065509;28;20708;-71
2021/10/27 05:08:30;;;;;;;12.10;7.43;;;10.40;99.90;;;;;;5046974;28;20211;-72
2021/10/27 05:10:56;;;;;;;11.97;7.70;;;10.40;99.90;;;;;;5065123;28;20530;-72
2021/10/27 05:13:22;;;;;;;7.00;5.73;;;10.40;99.90;;;;;;5064628;28;20983;-71
2021/10/27 05:15:48;;;;;;;6.07;5.20;;;10.40;99.90;;;;;;5068149;28;20262;-73
2021/10/27 05:18:15;;;;;;;7.60;4.90;;;10.40;99.90;;;;;;5053807;28;20608;-71
2021/10/27 05:20:45;;;;;;;7.30;5.20;;;10.40;99.90;;;;;;5089606;28;21175;-71
2021/10/27 05:23:11;;;;;;;8.17;4.53;;;10.40;99.90;;;;;;5073052;28;20905;-71
2021/10/27 05:25:37;;;;;;;5.83;4.80;;;10.40;99.90;;;;;;5072813;28;20453;-71
2021/10/27 05:28:03;;;;;;;6.73;4.90;;;10.40;99.90;;;;;;5073226;28;20488;-71
2021/10/27 05:30:29;;;;;;;5.20;4.40;;;10.40;99.90;;;;;;5072554;28;20461;-71
2021/10/27 05:32:58;;;;;;;8.30;4.10;;;10.40;99.90;;;;;;5071252;28;20461;-71
2021/10/27 05:35:26;;;;;;;5.80;4.60;;;10.40;99.90;;;;;;5073735;28;20471;-70
2021/10/27 05:37:52;;;;;;;5.20;3.77;;;10.40;99.90;;;;;;5072457;28;20445;-71
2021/10/27 05:40:18;;;;;;;5.37;4.13;;;10.50;99.90;;;;;;5071247;28;20465;-71
2021/10/27 05:42:45;;;;;;;5.17;3.97;;;10.40;99.90;;;;;;5071948;28;20510;-70
2021/10/27 05:45:10;;;;;;;3.80;3.50;;;10.40;99.90;;;;;;5072227;28;20301;-71
2021/10/27 05:47:40;;;;;;;5.23;3.70;;;10.40;99.90;;;;;;5072332;28;20549;-70
2021/10/27 05:55:17;;;;;;;5.13;4.23;;;10.50;99.90;;;;;;5071861;28;20462;-70
2021/10/27 05:57:43;;;;;;;5.93;4.80;;;10.50;99.90;;;;;;5054564;28;20786;-71
2021/10/27 06:00:10;;;;;;;4.50;3.80;;;10.50;99.90;;;;;;5071538;28;20532;-71
2021/10/27 06:02:37;;;;;;;4.10;3.50;;;10.50;99.90;;;;;;5055512;28;20230;-70
2021/10/27 06:05:03;;;;;;;4.77;4.00;;;10.50;99.90;;;;;;5070687;28;20845;-70
2021/10/27 06:07:31;;;;;;;5.90;5.03;;;10.50;99.90;;;;;;5071867;28;20824;-71
2021/10/27 06:09:57;;;;;;;7.33;4.70;;;10.50;99.90;;;;;;5072521;28;20976;-71
2021/10/27 06:12:23;;;;;;;6.93;5.03;;;10.50;99.90;;;;;;5070651;28;20465;-70
2021/10/27 06:14:49;;;;;;;7.20;4.67;;;10.50;99.90;;;;;;5073133;28;20454;-70
2021/10/27 06:17:15;;;;;;;8.10;4.73;;;10.50;99.90;;;;;;5054551;28;20242;-70
2021/10/27 06:19:41;;;;;;;6.33;4.07;;;10.50;99.90;;;;;;5071020;28;21040;-71
2021/10/27 06:22:09;;;;;;;4.97;4.00;;;10.50;99.90;;;;;;5070806;28;20445;-70
2021/10/27 06:24:35;;;;;;;6.27;4.73;;;10.50;99.90;;;;;;5071295;28;20219;-70
2021/10/27 06:27:01;;;;;;;5.10;3.87;;;10.50;99.90;;;;;;5071235;28;20464;-71
2021/10/27 06:29:38;;;;;;;9.13;4.00;;;10.50;99.90;;;;;;5069750;28;20507;-71
2021/10/27 06:32:22;;;;;;;5.10;3.80;;;10.50;99.90;;;;;;5070858;28;20473;-71
2021/10/27 06:34:57;;;;;;;5.90;3.50;;;10.50;99.90;;;;;;5072712;28;20469;-71
2021/10/27 06:37:54;;;;;;;4.50;3.90;;;10.50;99.90;;;;;;5053696;28;20511;-71
2021/10/27 06:48:40;;;;;;;5.40;3.77;;;10.50;99.90;;;;;;5037752;28;20819;-72
2021/10/27 06:51:05;;;;;;;5.70;4.47;;;10.50;99.90;;;;;;5053538;28;20454;-69
2021/10/27 06:53:35;;;;;;;7.63;4.90;;;10.50;99.90;;;;;;5064895;28;20222;-71
2021/10/27 06:56:01;;;;;;;4.30;3.90;;;10.50;99.90;;;;;;5072233;28;20220;-71
2021/10/27 06:58:31;;;;;;;5.97;4.40;;;10.50;99.90;;;;;;5069178;28;20441;-71
2021/10/27 07:00:59;;;;;;;5.40;4.50;;;10.50;99.90;;;;;;5060295;28;20459;-71
2021/10/27 07:06:13;;;;;;;4.23;3.37;;;10.60;99.90;;;;;;5071079;28;20658;-70
2021/10/27 07:16:36;;;;;;;5.50;3.83;;;10.60;99.90;;;;;;5065272;28;20442;-70
2021/10/27 07:19:02;;;;;;;5.77;3.50;;;10.60;99.90;;;;;;5064640;28;21027;-71
2021/10/27 07:21:28;;;;;;;7.47;4.93;;;10.60;99.90;;;;;;5078455;28;20238;-71
2021/10/27 07:23:53;;;;;;;5.83;4.17;;;10.70;99.90;;;;;;5054228;28;20281;-71
2021/10/27 07:26:20;;;;;;;5.30;3.80;;;10.70;99.90;;;;;;5051292;28;20247;-71
2021/10/27 07:28:48;;;;;;;5.87;4.97;;;10.70;99.90;;;;;;5051908;28;20242;-72
2021/10/27 07:31:16;;;;;;;14.10;7.97;;;10.70;99.90;;;;;;5085909;28;20467;-70
2021/10/27 07:33:43;;;;;;;29.23;15.77;;;10.70;99.90;;;;;;5049960;28;20845;-68
2021/10/27 07:36:26;;;;;;;40.63;17.23;;;10.70;99.90;;;;;;5052298;28;20464;-71
2021/10/27 07:41:37;;;;;;;16.20;9.90;;;10.70;99.90;;;;;;5067732;28;20468;-72
2021/10/27 07:44:13;;;;;;;14.47;9.17;;;10.70;99.90;;;;;;5101125;28;20469;-71
2021/10/27 07:46:41;;;;;;;14.10;8.30;;;10.70;99.90;;;;;;5070283;28;20536;-71
2021/10/27 07:49:07;;;;;;;17.30;8.23;;;10.80;99.90;;;;;;5065279;28;20450;-71
2021/10/27 07:51:33;;;;;;;12.23;7.67;;;10.80;99.90;;;;;;5098255;28;21012;-71
2021/10/27 07:53:58;;;;;;;9.70;7.20;;;10.80;99.90;;;;;;5086643;28;20219;-71
2021/10/27 07:56:24;;;;;;;10.67;6.90;;;10.80;99.90;;;;;;5069699;28;20618;-70
2021/10/27 07:58:53;;;;;;;10.97;5.50;;;10.80;99.90;;;;;;5069737;28;20219;-68
2021/10/27 08:01:19;;;;;;;10.37;5.70;;;10.80;99.90;;;;;;5088948;28;21489;-71
2021/10/27 08:03:45;;;;;;;8.67;5.70;;;10.80;99.90;;;;;;5062317;28;20454;-69
2021/10/27 08:06:11;;;;;;;10.47;5.67;;;10.90;99.90;;;;;;5080157;28;20211;-70
2021/10/27 08:08:38;;;;;;;9.60;5.60;;;10.90;99.90;;;;;;5072563;28;20261;-71
2021/10/27 08:11:04;;;;;;;9.63;5.77;;;10.90;99.90;;;;;;5065649;28;20458;-72
2021/10/27 08:13:29;;;;;;;11.00;5.27;;;10.90;99.90;;;;;;5048377;28;20469;-71
2021/10/27 08:15:56;;;;;;;6.40;4.87;;;11.00;99.90;;;;;;5058999;28;20230;-71
2021/10/27 08:18:22;;;;;;;9.27;5.00;;;11.00;99.90;;;;;;5086252;28;20692;-71
2021/10/27 08:20:49;;;;;;;8.30;4.90;;;11.00;99.90;;;;;;5075217;28;20466;-72
2021/10/27 08:23:18;;;;;;;8.40;4.73;;;11.00;99.90;;;;;;5085413;28;20450;-70
2021/10/27 08:25:45;;;;;;;6.57;5.10;;;11.00;99.90;;;;;;5069331;28;20485;-71
2021/10/27 08:28:15;;;;;;;9.27;4.70;;;11.10;99.90;;;;;;5063020;28;20468;-70
2021/10/27 08:30:49;;;;;;;8.30;4.40;;;11.10;99.90;;;;;;5077072;28;20446;-71
2021/10/27 08:33:20;;;;;;;14.63;4.80;;;11.10;99.90;;;;;;5047859;28;20834;-70
2021/10/27 08:35:47;;;;;;;6.57;4.63;;;11.20;99.90;;;;;;5064954;28;20529;-68
2021/10/27 08:38:13;;;;;;;8.03;4.97;;;11.20;99.90;;;;;;5068403;28;20469;-70
2021/10/27 08:40:42;;;;;;;13.30;6.60;;;11.20;99.90;;;;;;5067975;28;20994;-71
2021/10/27 08:43:09;;;;;;;11.90;6.57;;;11.30;99.90;;;;;;5059822;28;20297;-70
2021/10/27 08:45:35;;;;;;;9.53;6.33;;;11.30;99.90;;;;;;5086170;28;20529;-72
2021/10/27 08:48:05;;;;;;;11.73;5.60;;;11.40;99.90;;;;;;5085923;28;20889;-72
2021/10/27 08:50:31;;;;;;;7.37;6.00;;;11.50;99.90;;;;;;5061563;28;20223;-70
2021/10/27 08:52:57;;;;;;;7.90;5.63;;;11.60;99.90;;;;;;5066098;28;20493;-71
2021/10/27 08:55:23;;;;;;;9.70;5.73;;;11.70;99.90;;;;;;5068508;28;20481;-70
2021/10/27 08:57:50;;;;;;;10.70;5.47;;;11.70;99.90;;;;;;5068152;28;20226;-66
2021/10/27 09:00:22;;;;;;;;;;;;;;;;;;;;;
2021/10/27 09:05:48;;;;;;;8.87;5.30;;;11.80;99.90;;;;;;5040440;28;20458;-69
2021/10/27 10:04:27;;;;;;;11.50;7.80;;;13.90;99.90;;;;;;5063539;28;20506;-69
2021/10/27 10:07:00;;;;;;;9.40;6.10;;;14.00;99.90;;;;;;5069073;28;20469;-68
2021/10/27 10:09:29;;;;;;;5.67;4.90;;;14.00;99.90;;;;;;5049161;28;20445;-70
2021/10/27 10:11:56;;;;;;;8.07;5.23;;;14.10;99.90;;;;;;5051136;28;20490;-68
2021/10/27 10:14:22;;;;;;;8.67;4.97;;;14.10;99.90;;;;;;5050839;28;20438;-69
2021/10/27 10:16:51;;;;;;;7.50;4.73;;;14.10;99.90;;;;;;5042827;28;20812;-67
2021/10/27 10:19:20;;;;;;;7.80;4.93;;;14.20;99.90;;;;;;5046828;28;20457;-69
2021/10/27 10:21:48;;;;;;;5.37;4.60;;;14.20;99.90;;;;;;5065500;28;21084;-69
2021/10/27 10:24:26;;;;;;;5.57;4.20;;;14.20;99.90;;;;;;5037885;28;20453;-69
2021/10/27 10:26:56;;;;;;;9.20;4.20;;;14.20;99.90;;;;;;5071887;28;20461;-69
2021/10/27 10:29:38;;;;;;;5.23;4.00;;;14.30;99.90;;;;;;5067777;28;20548;-69
2021/10/27 10:32:29;;;;;;;11.13;6.50;;;14.30;99.90;;;;;;5078494;28;20474;-69
2021/10/27 10:35:11;;;;;;;13.03;9.17;;;14.30;99.90;;;;;;5062795;28;20459;-71
2021/10/27 11:24:42;;;;;;;;;;;;;;;;;;;;;
2021/10/27 11:27:12;;;;;;;18.20;8.73;;;15.30;99.90;;;;;;5071419;28;20927;-72
2021/10/27 11:40:41;;;;;;;4.87;4.27;;;15.30;99.90;;;;;;5065018;28;20512;-71
2021/10/27 11:48:13;;;;;;;8.10;4.00;;;15.30;99.90;;;;;;5062172;28;20477;-71
2021/10/27 11:50:41;;;;;;;2.60;2.40;;;15.40;99.90;;;;;;5069822;28;20521;-72
2021/10/27 11:53:27;;;;;;;4.23;2.90;;;15.40;99.90;;;;;;5082175;28;20493;-71
2021/10/27 11:55:54;;;;;;;3.80;3.13;;;15.40;99.90;;;;;;5040776;28;21048;-71
2021/10/27 11:58:22;;;;;;;3.33;2.90;;;15.50;99.90;;;;;;5103048;28;20438;-71
2021/10/27 12:00:57;;;;;;;3.83;3.40;;;15.50;99.90;;;;;;5086575;28;20453;-71
2021/10/27 12:03:33;;;;;;;3.83;3.17;;;15.50;99.90;;;;;;5079734;28;20449;-71
2021/10/27 12:06:18;;;;;;;5.70;3.40;;;15.50;99.90;;;;;;5084328;28;20449;-72
2021/10/27 12:19:19;;;;;;;5.10;3.03;;;15.60;99.90;;;;;;5060881;28;20460;-72
2021/10/27 12:21:57;;;;;;;5.20;2.60;;;15.70;99.90;;;;;;5062799;28;20457;-71
2021/10/27 12:24:25;;;;;;;3.67;3.10;;;15.70;99.90;;;;;;5067245;28;20954;-72
2021/10/27 12:27:05;;;;;;;3.03;2.73;;;15.80;99.90;;;;;;5069225;28;20483;-72
2021/10/27 12:29:33;;;;;;;3.90;2.47;;;15.90;99.90;;;;;;5066281;28;20476;-71
2021/10/27 12:32:12;;;;;;;3.20;2.33;;;16.00;99.90;;;;;;5058681;28;20490;-71
2021/10/27 12:34:49;;;;;;;4.50;2.60;;;16.00;99.90;;;;;;5069278;28;20618;-71
2021/10/27 12:37:20;;;;;;;2.57;2.37;;;16.20;99.90;;;;;;5069116;28;20447;-71
2021/10/27 12:39:47;;;;;;;4.20;3.17;;;16.40;99.90;;;;;;5063437;28;20472;-71
2021/10/27 12:42:14;;;;;;;3.77;2.30;;;16.60;99.90;;;;;;5060310;28;22289;-71
2021/10/27 12:44:51;;;;;;;3.60;2.47;;;16.80;99.90;;;;;;5047163;28;20453;-71
2021/10/27 12:47:21;;;;;;;2.57;2.30;;;16.90;99.90;;;;;;5053550;28;20476;-72
2021/10/27 12:50:02;;;;;;;5.33;2.50;;;17.00;99.90;;;;;;5069150;28;20467;-71
2021/10/27 12:52:49;;;;;;;3.20;2.50;;;17.20;99.90;;;;;;5065337;28;20465;-71
2021/10/27 12:55:18;;;;;;;3.30;1.73;;;17.30;99.90;;;;;;5048832;28;20816;-71
2021/10/27 12:58:07;;;;;;;1.40;1.30;;;17.40;99.90;;;;;;5065832;28;20530;-71
2021/10/27 13:01:03;;;;;;;2.20;2.00;;;17.50;99.90;;;;;;5039716;28;21038;-72
2021/10/27 13:03:45;;;;;;;2.50;2.30;;;17.50;99.90;;;;;;5041680;28;20461;-72
2021/10/27 13:06:22;;;;;;;2.10;2.00;;;17.70;99.90;;;;;;5049559;28;20480;-71
2021/10/27 13:14:50;;;;;;;2.77;1.77;;;17.80;99.90;;;;;;5036027;28;20486;-71
2021/10/27 13:22:39;;;;;;;3.03;1.60;;;17.80;99.90;;;;;;5048238;28;20449;-71
2021/10/27 13:30:48;;;;;;;3.00;2.67;;;17.80;99.90;;;;;;5047949;28;20454;-71
2021/10/27 13:33:15;;;;;;;1.60;1.50;;;17.80;99.90;;;;;;5057341;28;20476;-72
2021/10/27 13:35:41;;;;;;;4.43;1.53;;;17.80;99.90;;;;;;5085683;28;20456;-72
2021/10/27 13:38:08;;;;;;;1.77;1.50;;;17.70;99.90;;;;;;5062604;28;20538;-71
2021/10/27 13:40:39;;;;;;;8.70;5.20;;;17.70;99.90;;;;;;5057919;28;20250;-71
2021/10/27 13:45:36;;;;;;;1.97;1.70;;;17.80;99.90;;;;;;5066129;28;20541;-71
2021/10/27 14:09:20;;;;;;;1.97;1.77;;;17.90;99.90;;;;;;5050908;28;20457;-71
2021/10/27 14:12:16;;;;;;;2.70;1.50;;;17.90;99.90;;;;;;5039692;28;20974;-71
2021/10/27 14:14:54;;;;;;;;;;;;;;;;;;;;;
2021/10/27 15:19:51;;;;;;;6.23;2.07;;;17.40;99.90;;;;;;5084960;28;20457;-73
2021/10/27 15:51:50;;;;;;;3.73;2.20;;;17.10;99.90;;;;;;5069727;28;20977;-71
2021/10/27 15:54:16;;;;;;;4.43;3.17;;;17.10;99.90;;;;;;5068412;28;20461;-71
2021/10/27 15:56:43;;;;;;;6.80;4.77;;;17.00;99.90;;;;;;5061669;28;20441;-72
2021/10/27 15:59:09;;;;;;;9.40;6.27;;;17.00;99.90;;;;;;5060428;28;20482;-72
2021/10/27 16:01:36;;;;;;;18.17;13.73;;;17.00;99.90;;;;;;5066577;28;20457;-71
2021/10/27 16:04:02;;;;;;;13.20;8.53;;;17.00;99.90;;;;;;5049260;28;20607;-72
2021/10/27 16:06:29;;;;;;;9.17;6.30;;;16.90;99.90;;;;;;5060957;28;20475;-72
2021/10/27 16:08:57;;;;;;;4.90;4.40;;;16.80;99.90;;;;;;5058291;28;20462;-68
2021/10/27 16:11:23;;;;;;;5.93;5.33;;;16.80;99.90;;;;;;5061688;28;20443;-71
2021/10/27 16:13:49;;;;;;;5.23;4.10;;;16.70;99.90;;;;;;5032641;28;20474;-71
2021/10/27 16:16:16;;;;;;;4.90;4.07;;;16.70;99.90;;;;;;5052220;28;20449;-71
2021/10/27 16:18:42;;;;;;;4.70;4.30;;;16.60;99.90;;;;;;5065368;28;20472;-71
2021/10/27 16:21:08;;;;;;;3.70;3.40;;;16.50;99.90;;;;;;5068593;28;20501;-72
2021/10/27 16:23:34;;;;;;;4.40;3.87;;;16.50;99.90;;;;;;5068660;28;20527;-72
2021/10/27 16:26:00;;;;;;;5.70;3.67;;;16.50;99.90;;;;;;5054961;28;20451;-72
2021/10/27 16:28:26;;;;;;;4.03;3.30;;;16.40;99.90;;;;;;5063945;28;20223;-71
2021/10/27 16:30:53;;;;;;;6.17;3.23;;;16.30;99.90;;;;;;5057349;28;20478;-73
2021/10/27 16:33:21;;;;;;;4.80;3.17;;;16.30;99.90;;;;;;5050676;28;20462;-73
2021/10/27 16:35:49;;;;;;;3.50;3.20;;;16.30;99.90;;;;;;5058894;28;20513;-71
2021/10/27 16:38:15;;;;;;;3.57;3.27;;;16.20;99.90;;;;;;5048581;28;20465;-72
2021/10/27 16:40:41;;;;;;;5.57;3.83;;;16.20;99.90;;;;;;5047787;28;21002;-72
2021/10/27 16:43:07;;;;;;;3.97;3.50;;;16.10;99.90;;;;;;5030972;28;20454;-71
2021/10/27 16:45:33;;;;;;;6.17;4.07;;;16.10;99.90;;;;;;5048751;28;20228;-71
2021/10/27 16:48:03;;;;;;;4.37;3.73;;;16.00;99.90;;;;;;5048514;28;21025;-71
2021/10/27 16:50:29;;;;;;;6.97;4.83;;;15.90;99.90;;;;;;5034894;28;20458;-71
2021/10/27 16:52:57;;;;;;;5.57;4.97;;;15.80;99.90;;;;;;5064987;28;20482;-71
2021/10/27 16:55:23;;;;;;;6.37;5.07;;;15.60;99.90;;;;;;5049152;28;20449;-71
2021/10/27 16:57:52;;;;;;;5.87;4.53;;;15.60;99.90;;;;;;5065597;28;20461;-71
2021/10/27 17:00:20;;;;;;;6.07;4.43;;;15.60;99.90;;;;;;5032034;28;20447;-71
2021/10/27 17:02:46;;;;;;;4.53;4.10;;;15.60;99.90;;;;;;5048311;28;20459;-70
2021/10/27 17:05:12;;;;;;;8.60;7.07;;;15.60;99.90;;;;;;5048526;28;20477;-72
2021/10/27 17:07:38;;;;;;;7.80;5.37;;;15.50;99.90;;;;;;5050186;28;20462;-72
2021/10/27 17:10:07;;;;;;;5.13;4.63;;;15.40;99.90;;;;;;5031649;28;20450;-71
2021/10/27 17:12:34;;;;;;;5.00;4.60;;;15.40;99.90;;;;;;5047881;28;20473;-70
2021/10/27 17:15:00;;;;;;;6.20;5.00;;;15.40;99.90;;;;;;5048165;28;20519;-71
2021/10/27 17:17:26;;;;;;;5.70;4.87;;;15.40;99.90;;;;;;5049970;28;20446;-71
2021/10/27 17:19:53;;;;;;;7.33;4.90;;;15.30;99.90;;;;;;5048883;28;20469;-72
2021/10/27 17:22:24;;;;;;;4.70;4.20;;;15.30;99.90;;;;;;5048402;28;20956;-72
2021/10/27 17:24:49;;;;;;;3.60;3.30;;;15.20;99.90;;;;;;5048183;28;20458;-70
2021/10/27 17:27:15;;;;;;;4.10;3.63;;;15.20;99.90;;;;;;5048024;28;20441;-71
2021/10/27 17:29:41;;;;;;;5.43;4.07;;;15.20;99.90;;;;;;5046184;28;20224;-71
2021/10/27 17:32:07;;;;;;;5.30;4.90;;;15.10;99.90;;;;;;5042120;28;20294;-71
2021/10/27 17:34:34;;;;;;;8.63;7.83;;;15.00;99.90;;;;;;5030691;28;20255;-73
2021/10/27 17:37:00;;;;;;;8.40;7.70;;;15.00;99.90;;;;;;5041645;28;20720;-71
2021/10/27 17:39:27;;;;;;;7.73;7.03;;;15.00;99.90;;;;;;5047331;28;20512;-71
2021/10/27 17:41:55;;;;;;;7.33;6.07;;;15.00;99.90;;;;;;5047381;28;20470;-72
2021/10/27 17:44:21;;;;;;;8.07;6.00;;;14.90;99.90;;;;;;5043626;28;20483;-72
2021/10/27 17:47:03;;;;;;;4.90;4.50;;;14.70;99.90;;;;;;5045230;28;20491;-72